Time,TemperatureF,DewpointF,PressureIn,WindDirection,WindDirectionDegrees,WindSpeedMPH,WindSpeedGustMPH,Humidity,HourlyPrecipIn,Conditions,Clouds,dailyrainin,SoftwareType,DateUTC
2013-05-12 00:00:00,58.5,58.2,29.76,WSW,238,4.0,4.0,99,0.18,,,0.51,Wunderground v.1.15,2013-05-12 04:00:00,
2013-05-12 00:10:00,58.4,58.1,29.77,WSW,243,3.0,3.0,99,0.17,,,0.03,Wunderground v.1.15,2013-05-12 04:10:00,
2013-05-12 00:20:00,58.1,57.8,29.77,SSW,200,4.0,4.0,99,0.20,,,0.06,Wunderground v.1.15,2013-05-12 04:20:00,
2013-05-12 00:30:00,57.8,57.5,29.77,SW,229,5.0,8.0,99,0.23,,,0.10,Wunderground v.1.15,2013-05-12 04:30:00,
2013-05-12 00:40:00,57.4,57.1,29.76,WSW,257,6.0,8.0,99,0.35,,,0.16,Wunderground v.1.15,2013-05-12 04:40:00,
2013-05-12 00:50:00,57.1,56.8,29.75,WNW,290,4.0,8.0,99,0.10,,,0.17,Wunderground v.1.15,2013-05-12 04:50:00,
2013-05-12 01:00:00,57.0,56.7,29.74,SW,218,4.0,4.0,99,0.06,,,0.18,Wunderground v.1.15,2013-05-12 05:00:00,
2013-05-12 01:10:00,56.7,56.4,29.75,West,264,3.0,3.0,99,0.04,,,0.18,Wunderground v.1.15,2013-05-12 05:10:00,
2013-05-12 01:20:00,56.5,56.2,29.75,SSW,205,2.0,8.0,99,0.00,,,0.18,Wunderground v.1.15,2013-05-12 05:20:00,
2013-05-12 01:30:00,56.5,56.2,29.75,SW,225,3.0,3.0,99,0.00,,,0.18,Wunderground v.1.15,2013-05-12 05:30:00,
2013-05-12 01:40:00,56.4,56.1,29.74,SSW,211,2.0,8.0,99,0.00,,,0.18,Wunderground v.1.15,2013-05-12 05:40:00,
2013-05-12 01:50:00,56.4,56.1,29.75,West,266,2.0,8.0,99,0.00,,,0.18,Wunderground v.1.15,2013-05-12 05:50:00,
2013-05-12 02:00:00,56.3,56.0,29.74,WSW,238,4.0,4.0,99,0.00,,,0.18,Wunderground v.1.15,2013-05-12 06:00:00,
2013-05-12 02:10:00,56.2,55.9,29.73,SW,229,4.0,4.0,99,0.00,,,0.18,Wunderground v.1.15,2013-05-12 06:10:00,
2013-05-12 02:20:00,56.2,55.9,29.72,SSW,205,4.0,4.0,99,0.00,,,0.18,Wunderground v.1.15,2013-05-12 06:20:00,
2013-05-12 02:30:00,56.2,55.9,29.73,SW,222,4.0,4.0,99,0.00,,,0.18,Wunderground v.1.15,2013-05-12 06:30:00,
2013-05-12 02:40:00,56.1,55.8,29.71,SW,232,5.0,5.0,99,0.00,,,0.18,Wunderground v.1.15,2013-05-12 06:40:00,
2013-05-12 02:50:00,56.1,55.8,29.72,SW,221,4.0,4.0,99,0.00,,,0.18,Wunderground v.1.15,2013-05-12 06:50:00,
2013-05-12 03:00:00,56.2,55.9,29.72,SW,218,4.0,8.0,99,0.00,,,0.18,Wunderground v.1.15,2013-05-12 07:00:00,
2013-05-12 03:10:00,56.1,55.8,29.71,South,181,5.0,5.0,99,0.00,,,0.18,Wunderground v.1.15,2013-05-12 07:10:00,
2013-05-12 03:20:00,55.9,55.6,29.72,South,189,4.0,4.0,99,0.00,,,0.18,Wunderground v.1.15,2013-05-12 07:20:00,
2013-05-12 03:30:00,55.8,55.5,29.73,SW,221,3.0,8.0,99,0.00,,,0.18,Wunderground v.1.15,2013-05-12 07:30:00,
2013-05-12 03:40:00,55.8,55.5,29.72,SSW,212,4.0,4.0,99,0.00,,,0.18,Wunderground v.1.15,2013-05-12 07:40:00,
2013-05-12 03:50:00,56.3,56.0,29.72,SE,146,4.0,8.0,99,0.00,,,0.18,Wunderground v.1.15,2013-05-12 07:50:00,
2013-05-12 04:00:00,56.1,55.8,29.72,SW,215,4.0,4.0,99,0.00,,,0.18,Wunderground v.1.15,2013-05-12 08:00:00,
2013-05-12 04:10:00,55.9,55.6,29.71,SSW,210,3.0,3.0,99,0.00,,,0.18,Wunderground v.1.15,2013-05-12 08:10:00,
2013-05-12 04:20:00,55.7,55.4,29.71,SSW,210,3.0,3.0,99,0.00,,,0.18,Wunderground v.1.15,2013-05-12 08:20:00,
2013-05-12 04:30:00,55.6,55.3,29.69,SSW,199,2.0,8.0,99,0.00,,,0.18,Wunderground v.1.15,2013-05-12 08:30:00,
2013-05-12 04:40:00,55.6,55.3,29.69,SSW,204,3.0,8.0,99,0.00,,,0.18,Wunderground v.1.15,2013-05-12 08:40:00,
2013-05-12 04:50:00,55.5,55.2,29.70,SW,229,4.0,8.0,99,0.00,,,0.18,Wunderground v.1.15,2013-05-12 08:50:00,
2013-05-12 05:00:00,56.0,55.7,29.71,SSW,210,4.0,8.0,99,0.00,,,0.18,Wunderground v.1.15,2013-05-12 09:00:00,
2013-05-12 05:10:00,55.9,55.6,29.70,SSW,195,4.0,4.0,99,0.00,,,0.18,Wunderground v.1.15,2013-05-12 09:10:00,
2013-05-12 05:20:00,55.9,55.6,29.71,South,178,3.0,8.0,99,0.00,,,0.18,Wunderground v.1.15,2013-05-12 09:20:00,
2013-05-12 05:30:00,55.9,55.6,29.70,SSW,207,3.0,3.0,99,0.00,,,0.18,Wunderground v.1.15,2013-05-12 09:30:00,
2013-05-12 05:40:00,56.1,55.8,29.71,ESE,120,4.0,8.0,99,0.00,,,0.18,Wunderground v.1.15,2013-05-12 09:40:00,
2013-05-12 05:50:00,56.3,56.0,29.71,SW,219,5.0,5.0,99,0.00,,,0.18,Wunderground v.1.15,2013-05-12 09:50:00,
2013-05-12 06:00:00,56.7,56.4,29.71,SW,222,5.0,5.0,99,0.19,,,0.19,Wunderground v.1.15,2013-05-12 10:00:00,
2013-05-12 06:10:00,56.7,56.4,29.71,SSW,203,4.0,8.0,99,0.18,,,0.23,Wunderground v.1.15,2013-05-12 10:10:00,
2013-05-12 06:20:00,56.6,56.3,29.70,South,170,3.0,3.0,99,0.06,,,0.23,Wunderground v.1.15,2013-05-12 10:20:00,
2013-05-12 06:30:00,56.6,56.3,29.70,WSW,248,3.0,8.0,99,0.06,,,0.24,Wunderground v.1.15,2013-05-12 10:30:00,
2013-05-12 06:40:00,56.7,56.4,29.70,SW,229,3.0,3.0,99,0.00,,,0.24,Wunderground v.1.15,2013-05-12 10:40:00,
2013-05-12 06:50:00,57.1,56.8,29.69,South,181,3.0,3.0,99,0.00,,,0.24,Wunderground v.1.15,2013-05-12 10:50:00,
2013-05-12 07:00:00,57.3,57.0,29.69,SSE,152,3.0,3.0,99,0.00,,,0.24,Wunderground v.1.15,2013-05-12 11:00:00,
2013-05-12 07:10:00,57.3,57.0,29.69,SW,229,3.0,3.0,99,0.00,,,0.24,Wunderground v.1.15,2013-05-12 11:10:00,
2013-05-12 07:20:00,57.6,57.3,29.68,SW,217,3.0,8.0,99,0.00,,,0.25,Wunderground v.1.15,2013-05-12 11:20:00,
2013-05-12 07:30:00,57.7,57.4,29.68,SSW,205,4.0,4.0,99,0.05,,,0.26,Wunderground v.1.15,2013-05-12 11:30:00,
2013-05-12 07:40:00,57.5,57.2,29.67,SSW,203,4.0,4.0,99,0.04,,,0.26,Wunderground v.1.15,2013-05-12 11:40:00,
2013-05-12 07:50:00,57.5,57.2,29.67,SW,217,4.0,4.0,99,0.04,,,0.27,Wunderground v.1.15,2013-05-12 11:50:00,
2013-05-12 08:00:00,57.4,57.1,29.66,WSW,257,4.0,8.0,99,0.08,,,0.29,Wunderground v.1.15,2013-05-12 12:00:00,
2013-05-12 08:10:00,57.3,57.0,29.67,NNW,330,3.0,3.0,99,0.09,,,0.31,Wunderground v.1.15,2013-05-12 12:10:00,
2013-05-12 08:20:00,57.2,56.9,29.67,SSW,193,2.0,8.0,99,0.10,,,0.32,Wunderground v.1.15,2013-05-12 12:20:00,
2013-05-12 08:30:00,57.0,56.7,29.67,WSW,243,1.0,8.0,99,0.10,,,0.34,Wunderground v.1.15,2013-05-12 12:30:00,
2013-05-12 08:40:00,56.8,56.5,29.68,SW,226,2.0,8.0,99,0.04,,,0.34,Wunderground v.1.15,2013-05-12 12:40:00,
2013-05-12 08:50:00,56.6,56.3,29.67,WSW,242,1.0,1.0,99,0.04,,,0.35,Wunderground v.1.15,2013-05-12 12:50:00,
2013-05-12 09:00:00,56.3,56.0,29.65,West,260,1.0,8.0,99,0.04,,,0.36,Wunderground v.1.15,2013-05-12 13:00:00,
2013-05-12 09:10:00,56.2,55.9,29.65,South,186,1.0,8.0,99,0.06,,,0.37,Wunderground v.1.15,2013-05-12 13:10:00,
2013-05-12 09:20:00,56.2,55.9,29.65,WSW,242,2.0,8.0,99,0.05,,,0.37,Wunderground v.1.15,2013-05-12 13:20:00,
2013-05-12 09:30:00,56.1,55.8,29.65,SSW,194,2.0,8.0,99,0.00,,,0.37,Wunderground v.1.15,2013-05-12 13:30:00,
2013-05-12 09:40:00,56.0,55.7,29.65,WSW,249,2.0,2.0,99,0.00,,,0.37,Wunderground v.1.15,2013-05-12 13:40:00,
2013-05-12 09:50:00,55.9,55.6,29.65,SSW,210,2.0,8.0,99,0.00,,,0.37,Wunderground v.1.15,2013-05-12 13:50:00,
2013-05-12 10:00:00,55.7,55.4,29.65,SW,221,2.0,8.0,99,0.00,,,0.38,Wunderground v.1.15,2013-05-12 14:00:00,
2013-05-12 10:10:00,55.7,55.4,29.65,ESE,122,2.0,8.0,99,0.00,,,0.38,Wunderground v.1.15,2013-05-12 14:10:00,
2013-05-12 10:20:00,55.7,55.4,29.65,West,260,2.0,2.0,99,0.00,,,0.38,Wunderground v.1.15,2013-05-12 14:20:00,
2013-05-12 10:30:00,55.9,55.6,29.66,SW,235,1.0,8.0,99,0.00,,,0.38,Wunderground v.1.15,2013-05-12 14:30:00,
2013-05-12 10:40:00,56.1,55.8,29.66,WSW,248,2.0,2.0,99,0.00,,,0.38,Wunderground v.1.15,2013-05-12 14:40:00,
2013-05-12 10:50:00,56.6,56.3,29.66,West,278,1.0,8.0,99,0.00,,,0.38,Wunderground v.1.15,2013-05-12 14:50:00,
2013-05-12 11:00:00,57.4,57.1,29.65,West,281,1.0,8.0,99,0.00,,,0.38,Wunderground v.1.15,2013-05-12 15:00:00,
2013-05-12 11:10:00,58.0,57.7,29.65,West,269,1.0,8.0,99,0.00,,,0.38,Wunderground v.1.15,2013-05-12 15:10:00,
2013-05-12 11:20:00,58.2,57.9,29.65,SW,235,1.0,8.0,99,0.00,,,0.38,Wunderground v.1.15,2013-05-12 15:20:00,
2013-05-12 11:30:00,58.2,57.9,29.65,East,88,1.0,8.0,99,0.00,,,0.38,Wunderground v.1.15,2013-05-12 15:30:00,
2013-05-12 11:40:00,57.8,57.5,29.66,WSW,240,2.0,8.0,99,0.00,,,0.38,Wunderground v.1.15,2013-05-12 15:40:00,
2013-05-12 11:50:00,57.6,57.3,29.66,WSW,248,1.0,8.0,99,0.00,,,0.38,Wunderground v.1.15,2013-05-12 15:50:00,
2013-05-12 12:00:00,57.7,57.4,29.66,West,271,1.0,8.0,99,0.00,,,0.38,Wunderground v.1.15,2013-05-12 16:00:00,
2013-05-12 12:10:00,57.7,57.4,29.65,SW,231,1.0,8.0,99,0.00,,,0.38,Wunderground v.1.15,2013-05-12 16:10:00,
2013-05-12 12:20:00,57.4,57.1,29.65,WSW,246,2.0,8.0,99,0.00,,,0.38,Wunderground v.1.15,2013-05-12 16:20:00,
2013-05-12 12:30:00,57.4,56.8,29.66,WSW,253,2.0,8.0,98,0.00,,,0.38,Wunderground v.1.15,2013-05-12 16:30:00,
2013-05-12 12:40:00,57.4,57.1,29.65,SW,229,2.0,2.0,99,0.00,,,0.38,Wunderground v.1.15,2013-05-12 16:40:00,
2013-05-12 12:50:00,57.1,56.5,29.65,SSW,210,2.0,2.0,98,0.00,,,0.38,Wunderground v.1.15,2013-05-12 16:50:00,
2013-05-12 13:00:00,56.9,56.3,29.66,SW,235,2.0,8.0,98,0.00,,,0.38,Wunderground v.1.15,2013-05-12 17:00:00,
2013-05-12 13:10:00,56.7,56.1,29.65,SW,232,2.0,8.0,98,0.00,,,0.38,Wunderground v.1.15,2013-05-12 17:10:00,
2013-05-12 13:20:00,56.7,56.1,29.65,SSW,210,2.0,2.0,98,0.00,,,0.38,Wunderground v.1.15,2013-05-12 17:20:00,
2013-05-12 13:30:00,56.6,56.0,29.66,SW,221,2.0,2.0,98,0.00,,,0.38,Wunderground v.1.15,2013-05-12 17:30:00,
2013-05-12 13:40:00,56.6,56.3,29.65,SW,218,2.0,8.0,99,0.00,,,0.38,Wunderground v.1.15,2013-05-12 17:40:00,
2013-05-12 13:50:00,56.6,56.0,29.66,SW,221,2.0,8.0,98,0.00,,,0.38,Wunderground v.1.15,2013-05-12 17:50:00,
2013-05-12 14:00:00,56.6,56.0,29.65,SSW,195,3.0,3.0,98,0.00,,,0.38,Wunderground v.1.15,2013-05-12 18:00:00,
2013-05-12 14:10:00,56.7,56.4,29.65,SW,225,3.0,3.0,99,0.00,,,0.38,Wunderground v.1.15,2013-05-12 18:10:00,
2013-05-12 14:20:00,56.9,56.3,29.65,WSW,238,3.0,3.0,98,0.00,,,0.38,Wunderground v.1.15,2013-05-12 18:20:00,
2013-05-12 14:30:00,56.8,56.2,29.64,SSW,210,2.0,2.0,98,0.00,,,0.38,Wunderground v.1.15,2013-05-12 18:30:00,
2013-05-12 14:40:00,56.6,56.0,29.64,West,280,2.0,8.0,98,0.00,,,0.38,Wunderground v.1.15,2013-05-12 18:40:00,
2013-05-12 14:50:00,56.6,56.0,29.64,SW,230,2.0,8.0,98,0.00,,,0.38,Wunderground v.1.15,2013-05-12 18:50:00,
2013-05-12 15:00:00,56.8,56.2,29.64,WSW,245,2.0,8.0,98,0.00,,,0.38,Wunderground v.1.15,2013-05-12 19:00:00,
2013-05-12 15:10:00,56.8,56.2,29.64,SSW,207,2.0,8.0,98,0.00,,,0.38,Wunderground v.1.15,2013-05-12 19:10:00,
2013-05-12 15:20:00,56.5,55.9,29.64,West,276,2.0,8.0,98,0.00,,,0.38,Wunderground v.1.15,2013-05-12 19:20:00,
2013-05-12 15:30:00,56.5,55.9,29.64,SW,236,3.0,3.0,98,0.00,,,0.38,Wunderground v.1.15,2013-05-12 19:30:00,
2013-05-12 15:40:00,56.7,56.1,29.63,SW,218,2.0,8.0,98,0.00,,,0.38,Wunderground v.1.15,2013-05-12 19:40:00,
2013-05-12 15:50:00,56.5,55.9,29.64,West,266,3.0,3.0,98,0.00,,,0.38,Wunderground v.1.15,2013-05-12 19:50:00,
2013-05-12 16:00:00,57.0,56.4,29.64,SW,232,2.0,2.0,98,0.00,,,0.38,Wunderground v.1.15,2013-05-12 20:00:00,
2013-05-12 16:10:00,58.2,57.4,29.64,WSW,246,2.0,2.0,97,0.00,,,0.38,Wunderground v.1.15,2013-05-12 20:10:00,
2013-05-12 16:20:00,58.7,56.7,29.63,WSW,249,3.0,8.0,93,0.00,,,0.38,Wunderground v.1.15,2013-05-12 20:20:00,
2013-05-12 16:30:00,59.1,56.8,29.64,WSW,249,2.0,8.0,92,0.00,,,0.38,Wunderground v.1.15,2013-05-12 20:30:00,
2013-05-12 16:40:00,59.5,56.6,29.64,NW,312,3.0,3.0,90,0.00,,,0.38,Wunderground v.1.15,2013-05-12 20:40:00,
2013-05-12 16:50:00,59.5,56.3,29.64,West,260,3.0,8.0,89,0.00,,,0.38,Wunderground v.1.15,2013-05-12 20:50:00,
2013-05-12 17:00:00,59.4,55.5,29.64,SW,232,3.0,3.0,87,0.00,,,0.38,Wunderground v.1.15,2013-05-12 21:00:00,
2013-05-12 17:10:00,59.5,55.6,29.65,ENE,66,3.0,8.0,87,0.00,,,0.38,Wunderground v.1.15,2013-05-12 21:10:00,
2013-05-12 17:20:00,59.4,55.5,29.64,WSW,243,3.0,8.0,87,0.00,,,0.38,Wunderground v.1.15,2013-05-12 21:20:00,
2013-05-12 17:30:00,59.0,55.1,29.65,WSW,248,3.0,3.0,87,0.00,,,0.38,Wunderground v.1.15,2013-05-12 21:30:00,
2013-05-12 17:40:00,59.0,55.1,29.65,West,271,3.0,3.0,87,0.00,,,0.38,Wunderground v.1.15,2013-05-12 21:40:00,
2013-05-12 17:50:00,59.3,55.4,29.65,SSW,205,2.0,8.0,87,0.00,,,0.38,Wunderground v.1.15,2013-05-12 21:50:00,
2013-05-12 18:00:00,59.0,54.8,29.65,WSW,241,2.0,8.0,86,0.00,,,0.38,Wunderground v.1.15,2013-05-12 22:00:00,
2013-05-12 18:10:00,58.1,54.6,29.65,WSW,248,2.0,2.0,88,0.00,,,0.38,Wunderground v.1.15,2013-05-12 22:10:00,
2013-05-12 18:20:00,57.8,54.3,29.66,SW,232,2.0,2.0,88,0.00,,,0.38,Wunderground v.1.15,2013-05-12 22:20:00,
2013-05-12 18:30:00,57.5,54.0,29.66,WSW,253,1.0,1.0,88,0.00,,,0.38,Wunderground v.1.15,2013-05-12 22:30:00,
2013-05-12 18:40:00,57.5,54.3,29.66,SW,218,1.0,8.0,89,0.00,,,0.38,Wunderground v.1.15,2013-05-12 22:40:00,
2013-05-12 18:50:00,57.1,53.6,29.67,WSW,257,2.0,8.0,88,0.00,,,0.38,Wunderground v.1.15,2013-05-12 22:50:00,
2013-05-12 19:00:00,56.8,53.3,29.67,NNW,327,3.0,3.0,88,0.00,,,0.38,Wunderground v.1.15,2013-05-12 23:00:00,
2013-05-12 19:10:00,56.7,53.2,29.67,WSW,238,3.0,3.0,88,0.00,,,0.38,Wunderground v.1.15,2013-05-12 23:10:00,
2013-05-12 19:20:00,56.5,52.7,29.68,WSW,249,2.0,8.0,87,0.00,,,0.38,Wunderground v.1.15,2013-05-12 23:20:00,
2013-05-12 19:30:00,56.1,52.3,29.68,SSW,212,2.0,8.0,87,0.00,,,0.38,Wunderground v.1.15,2013-05-12 23:30:00,
2013-05-12 19:40:00,55.8,52.3,29.68,West,262,3.0,8.0,88,0.00,,,0.38,Wunderground v.1.15,2013-05-12 23:40:00,
2013-05-12 19:50:00,55.8,52.3,29.69,West,263,3.0,3.0,88,0.00,,,0.38,Wunderground v.1.15,2013-05-12 23:50:00,
2013-05-12 20:00:00,55.6,52.4,29.69,WNW,291,2.0,2.0,89,0.00,,,0.38,Wunderground v.1.15,2013-05-13 00:00:00,
2013-05-12 20:10:00,55.5,52.3,29.70,West,276,2.0,2.0,89,0.00,,,0.38,Wunderground v.1.15,2013-05-13 00:10:00,
2013-05-12 20:20:00,55.3,52.4,29.70,West,274,2.0,8.0,90,0.00,,,0.38,Wunderground v.1.15,2013-05-13 00:20:00,
2013-05-12 20:30:00,55.0,52.1,29.70,West,274,2.0,2.0,90,0.00,,,0.38,Wunderground v.1.15,2013-05-13 00:30:00,
2013-05-12 20:40:00,55.1,52.2,29.71,West,274,2.0,8.0,90,0.00,,,0.38,Wunderground v.1.15,2013-05-13 00:40:00,
2013-05-12 20:50:00,55.5,52.0,29.71,West,278,2.0,2.0,88,0.00,,,0.38,Wunderground v.1.15,2013-05-13 00:50:00,
2013-05-12 21:00:00,55.3,51.5,29.72,West,271,1.0,8.0,87,0.00,,,0.38,Wunderground v.1.15,2013-05-13 01:00:00,
2013-05-12 21:10:00,55.0,51.5,29.73,West,276,1.0,8.0,88,0.00,,,0.38,Wunderground v.1.15,2013-05-13 01:10:00,
2013-05-12 21:20:00,54.6,51.4,29.74,WNW,293,1.0,1.0,89,0.00,,,0.38,Wunderground v.1.15,2013-05-13 01:20:00,
2013-05-12 21:30:00,54.2,51.0,29.74,West,280,0.0,8.0,89,0.00,,,0.38,Wunderground v.1.15,2013-05-13 01:30:00,
2013-05-12 21:40:00,53.9,50.4,29.75,West,262,1.0,8.0,88,0.00,,,0.38,Wunderground v.1.15,2013-05-13 01:40:00,
2013-05-12 21:50:00,53.6,49.8,29.75,West,273,0.0,8.0,87,0.00,,,0.38,Wunderground v.1.15,2013-05-13 01:50:00,
2013-05-12 22:00:00,53.2,49.1,29.75,WNW,284,0.0,8.0,86,0.00,,,0.38,Wunderground v.1.15,2013-05-13 02:00:00,
2013-05-12 22:10:00,53.6,47.6,29.76,WSW,253,1.0,1.0,80,0.00,,,0.38,Wunderground v.1.15,2013-05-13 02:10:00,
2013-05-12 22:20:00,53.7,46.7,29.76,NNW,335,1.0,1.0,77,0.00,,,0.38,Wunderground v.1.15,2013-05-13 02:20:00,
2013-05-12 22:30:00,53.8,45.7,29.76,NW,308,1.0,8.0,74,0.00,,,0.38,Wunderground v.1.15,2013-05-13 02:30:00,
2013-05-12 22:40:00,53.7,44.5,29.77,SW,226,1.0,1.0,71,0.00,,,0.38,Wunderground v.1.15,2013-05-13 02:40:00,
2013-05-12 22:50:00,53.6,44.0,29.78,WNW,295,1.0,8.0,70,0.00,,,0.38,Wunderground v.1.15,2013-05-13 02:50:00,
2013-05-12 23:00:00,53.6,42.5,29.79,NW,305,1.0,1.0,66,0.00,,,0.38,Wunderground v.1.15,2013-05-13 03:00:00,
2013-05-12 23:10:00,53.3,41.8,29.80,SW,229,1.0,1.0,65,0.00,,,0.38,Wunderground v.1.15,2013-05-13 03:10:00,
2013-05-12 23:20:00,53.5,41.2,29.80,West,281,2.0,2.0,63,0.00,,,0.38,Wunderground v.1.15,2013-05-13 03:20:00,
2013-05-12 23:30:00,53.6,40.0,29.80,West,272,1.0,8.0,60,0.00,,,0.38,Wunderground v.1.15,2013-05-13 03:30:00,
2013-05-12 23:40:00,53.6,40.0,29.81,WSW,249,1.0,1.0,60,0.00,,,0.38,Wunderground v.1.15,2013-05-13 03:40:00,
2013-05-12 23:50:00,53.0,39.0,29.81,West,266,1.0,8.0,59,0.00,,,0.38,Wunderground v.1.15,2013-05-13 03:50:00,